Time;durP1;ratioP1;P1;durP2;ratioP2;P2;SDS_P1;SDS_P2;PMS_P1;PMS_P2;Temp;Humidity;BMP_temperature;BMP_pressure;BME280_temperature;BME280_humidity;BME280_pressure;Samples;Min_cycle;Max_cycle;Signal;HPM_P1;HPM_P2
2022/03/20 00:01:02;;;;;;;22.13;19.77;;;5.30;1.00;5.70;101916.00;;;;5087877;28;20457;-77
2022/03/20 00:03:32;;;;;;;23.73;21.23;;;5.40;1.00;5.80;101913.00;;;;5084787;28;20815;-77
2022/03/20 00:06:01;;;;;;;22.83;19.57;;;5.40;1.00;5.80;101910.00;;;;5086328;28;20458;-78
2022/03/20 00:08:30;;;;;;;21.57;19.30;;;5.50;1.00;5.90;101899.00;;;;5087106;28;20585;-78
2022/03/20 00:11:01;;;;;;;19.97;17.77;;;5.50;1.00;5.90;101904.00;;;;5094638;28;20512;-78
2022/03/20 00:13:31;;;;;;;20.80;18.60;;;5.60;1.00;5.90;101905.00;;;;5100824;28;20517;-80
2022/03/20 00:15:59;;;;;;;22.17;18.43;;;5.60;1.00;6.00;101846.00;;;;5103008;28;20461;-79
2022/03/20 00:18:28;;;;;;;25.10;20.07;;;5.60;1.00;6.00;101863.00;;;;5105687;28;20529;-79
2022/03/20 00:20:58;;;;;;;21.07;18.87;;;5.60;1.00;6.00;101870.00;;;;5107051;28;20526;-78
2022/03/20 00:23:28;;;;;;;21.97;18.83;;;5.60;1.00;6.00;101896.00;;;;5088748;28;20453;-78
2022/03/20 00:25:57;;;;;;;22.03;19.23;;;5.60;1.00;6.00;101890.00;;;;5085767;28;20819;-78
2022/03/20 00:28:28;;;;;;;19.80;17.70;;;5.90;1.00;5.90;101886.00;;;;5076627;28;20507;-79
2022/03/20 00:30:57;;;;;;;22.80;18.93;;;5.50;1.00;5.80;101864.00;;;;5079741;28;20551;-78
2022/03/20 00:33:26;;;;;;;21.30;18.63;;;5.50;1.00;5.70;101887.00;;;;5079989;28;20885;-78
2022/03/20 00:35:55;;;;;;;22.37;19.23;;;5.40;1.00;5.70;101879.00;;;;5082528;28;20458;-79
2022/03/20 00:38:24;;;;;;;19.43;17.33;;;5.30;1.00;5.60;101872.00;;;;5083088;28;20503;-79
2022/03/20 00:40:52;;;;;;;20.57;18.03;;;5.30;1.00;5.60;101880.00;;;;5080653;28;20458;-78
2022/03/20 00:43:21;;;;;;;23.60;18.80;;;5.20;1.00;5.60;101872.00;;;;5077856;28;20454;-77
2022/03/20 00:45:51;;;;;;;21.50;17.87;;;5.20;1.00;5.60;101854.00;;;;5085231;28;20489;-79
2022/03/20 00:48:23;;;;;;;20.00;17.30;;;5.30;1.00;5.70;101863.00;;;;5085838;28;20473;-78
2022/03/20 00:50:53;;;;;;;19.53;17.07;;;5.30;1.00;5.70;101837.00;;;;5086525;28;20883;-79
2022/03/20 00:53:22;;;;;;;21.33;18.00;;;5.40;1.00;5.80;101862.00;;;;5084116;28;20533;-78
2022/03/20 00:55:50;;;;;;;22.87;18.07;;;5.40;1.00;5.80;101843.00;;;;5086831;28;20454;-78
2022/03/20 00:58:19;;;;;;;19.60;17.50;;;5.50;1.00;5.90;101831.00;;;;5083334;28;20849;-79
2022/03/20 01:00:47;;;;;;;23.00;18.53;;;5.60;1.00;6.00;101855.00;;;;5074022;28;20465;-77
2022/03/20 01:03:17;;;;;;;20.33;17.00;;;5.60;1.00;6.10;101834.00;;;;5081514;28;20484;-78
2022/03/20 01:05:45;;;;;;;18.17;16.20;;;5.80;1.00;6.10;101841.00;;;;5086102;28;20454;-79
2022/03/20 01:08:14;;;;;;;18.67;16.10;;;5.80;1.00;6.20;101816.00;;;;5082906;28;20557;-78
2022/03/20 01:10:42;;;;;;;20.83;16.43;;;5.90;1.00;6.20;101825.00;;;;5104691;28;20474;-79
2022/03/20 01:13:10;;;;;;;22.00;16.07;;;5.90;1.00;6.20;101800.00;;;;5086127;28;20452;-79
2022/03/20 01:15:39;;;;;;;18.10;16.10;;;5.90;1.00;6.20;101790.00;;;;5087903;28;20446;-79
2022/03/20 01:18:07;;;;;;;19.83;16.63;;;6.00;1.00;6.20;101824.00;;;;5086873;28;20474;-77
2022/03/20 01:20:37;;;;;;;17.70;15.83;;;5.90;1.00;6.20;101794.00;;;;5085162;28;20480;-78
2022/03/20 01:23:05;;;;;;;19.50;15.60;;;5.90;1.00;6.10;101820.00;;;;5084217;28;20457;-79
2022/03/20 01:25:34;;;;;;;19.07;15.63;;;5.90;1.00;6.20;101805.00;;;;5085810;28;20481;-80
2022/03/20 01:28:02;;;;;;;16.90;14.50;;;5.80;1.00;6.10;101810.00;;;;5079355;28;20576;-78
2022/03/20 01:30:30;;;;;;;19.50;16.87;;;5.80;1.00;6.00;101818.00;;;;5074530;28;20540;-77
2022/03/20 01:32:59;;;;;;;18.47;16.57;;;5.70;1.00;6.10;101790.00;;;;5085588;28;20450;-78
2022/03/20 01:35:27;;;;;;;18.63;15.50;;;5.70;1.00;6.10;101800.00;;;;5085755;28;20476;-78
2022/03/20 01:37:57;;;;;;;17.00;15.03;;;5.70;1.00;6.00;101806.00;;;;5082367;28;20531;-78
2022/03/20 01:40:26;;;;;;;19.47;16.40;;;5.70;1.00;6.00;101810.00;;;;5086113;28;20495;-78
2022/03/20 01:42:55;;;;;;;18.87;16.37;;;5.70;1.00;6.00;101800.00;;;;5083405;28;20466;-78
2022/03/20 01:45:25;;;;;;;21.53;16.63;;;5.70;1.00;6.00;101800.00;;;;5085336;28;20454;-78
2022/03/20 01:47:55;;;;;;;22.07;16.93;;;5.70;1.00;6.00;101796.00;;;;5088899;28;20478;-78
2022/03/20 01:50:27;;;;;;;17.97;15.60;;;5.70;1.00;5.90;101792.00;;;;5106883;28;20542;-78
2022/03/20 01:52:58;;;;;;;19.93;17.00;;;5.60;1.00;5.90;101798.00;;;;5087850;28;20464;-78
2022/03/20 01:55:28;;;;;;;19.27;17.00;;;5.60;1.00;5.80;101780.00;;;;5087344;28;20456;-79
2022/03/20 01:57:57;;;;;;;21.00;17.57;;;5.50;1.00;5.80;101791.00;;;;5085919;28;20481;-78
2022/03/20 02:00:27;;;;;;;21.50;18.07;;;5.50;1.00;5.80;101800.00;;;;5085176;28;20822;-78
2022/03/20 02:02:57;;;;;;;19.03;17.00;;;5.40;1.00;5.70;101786.00;;;;5087832;28;20464;-79
2022/03/20 02:05:26;;;;;;;22.47;18.17;;;5.40;1.00;5.70;101775.00;;;;5088716;28;20442;-78
2022/03/20 02:07:55;;;;;;;21.33;17.33;;;5.40;1.00;5.60;101645.00;;;;5088203;28;20482;-78
2022/03/20 02:10:35;;;;;;;23.50;17.73;;;5.30;1.00;5.60;101776.00;;;;5087866;28;20446;-78
2022/03/20 02:13:05;;;;;;;21.47;18.13;;;5.30;1.00;5.50;101772.00;;;;5088200;28;20449;-78
2022/03/20 02:15:34;;;;;;;21.20;18.10;;;5.30;1.00;5.50;101768.00;;;;5084538;28;20497;-78
2022/03/20 02:18:03;;;;;;;23.33;18.43;;;5.20;1.00;5.60;101783.00;;;;5077026;28;20486;-78
2022/03/20 02:20:32;;;;;;;20.50;17.40;;;5.20;1.00;5.50;101743.00;;;;5085496;28;21128;-78
2022/03/20 02:23:02;;;;;;;21.07;18.23;;;5.20;1.00;5.40;101762.00;;;;5086354;28;20454;-78
2022/03/20 02:25:30;;;;;;;20.53;17.47;;;5.10;1.00;5.40;101767.00;;;;5083123;28;20457;-78
2022/03/20 02:27:59;;;;;;;20.30;16.90;;;5.10;1.00;5.30;101749.00;;;;5081988;28;20502;-78
2022/03/20 02:30:30;;;;;;;22.30;18.50;;;5.00;1.00;5.30;101747.00;;;;5084034;28;21009;-78
2022/03/20 02:33:00;;;;;;;21.10;18.40;;;4.90;1.00;5.30;101718.00;;;;5099179;28;20470;-79
2022/03/20 02:35:31;;;;;;;22.53;19.70;;;4.90;1.00;5.30;101754.00;;;;5084308;28;20454;-78
2022/03/20 02:38:02;;;;;;;18.77;16.70;;;4.90;1.00;5.30;101719.00;;;;5077385;28;20484;-78
2022/03/20 02:40:30;;;;;;;20.03;17.77;;;4.90;1.00;5.30;101742.00;;;;5076249;28;20565;-78
2022/03/20 02:42:58;;;;;;;23.50;19.37;;;4.90;1.00;5.20;101749.00;;;;5089584;28;20553;-78
2022/03/20 02:45:29;;;;;;;22.83;18.63;;;4.90;1.00;5.20;101751.00;;;;5101957;28;20525;-78
2022/03/20 02:48:00;;;;;;;22.57;18.50;;;4.80;1.00;5.30;101756.00;;;;5093944;28;20507;-79
2022/03/20 02:50:32;;;;;;;23.50;18.90;;;4.90;1.00;5.40;101728.00;;;;5110005;28;20533;-78
2022/03/20 02:53:04;;;;;;;23.10;18.83;;;5.00;1.00;5.20;101725.00;;;;5117862;28;20462;-76
2022/03/20 02:55:36;;;;;;;22.10;19.60;;;4.90;1.00;5.20;101740.00;;;;5092482;28;20446;-78
2022/03/20 02:58:07;;;;;;;23.07;19.13;;;4.80;1.00;5.30;101740.00;;;;5085181;28;20474;-78
2022/03/20 03:00:37;;;;;;;22.00;19.20;;;4.90;1.00;5.30;101742.00;;;;5084933;28;20446;-78
2022/03/20 03:03:08;;;;;;;24.00;20.33;;;4.90;1.00;5.30;101737.00;;;;5076219;28;21056;-78
2022/03/20 03:05:37;;;;;;;24.03;19.67;;;5.00;1.00;5.30;101758.00;;;;5085387;28;21107;-78
2022/03/20 03:10:57;;;;;;;25.07;20.10;;;4.90;1.00;5.30;101748.00;;;;5081885;28;20462;-78
2022/03/20 03:13:29;;;;;;;24.37;19.73;;;4.90;1.00;5.20;101737.00;;;;5074261;28;20490;-78
2022/03/20 03:16:03;;;;;;;25.67;18.97;;;4.80;1.00;5.20;101737.00;;;;5083937;28;20457;-78
2022/03/20 03:18:32;;;;;;;22.87;19.07;;;4.80;1.00;5.30;101710.00;;;;5082074;28;20474;-78
2022/03/20 03:21:01;;;;;;;24.53;20.90;;;4.90;1.00;5.30;101738.00;;;;5099459;28;20460;-78
2022/03/20 03:23:32;;;;;;;23.23;20.10;;;4.90;1.00;5.30;101735.00;;;;5083673;28;20875;-78
2022/03/20 03:26:00;;;;;;;23.10;20.63;;;4.90;1.00;5.30;101737.00;;;;5082211;28;20513;-78
2022/03/20 03:28:34;;;;;;;25.30;19.90;;;5.00;1.00;5.30;101737.00;;;;5085500;28;20531;-78
2022/03/20 03:31:05;;;;;;;23.33;19.87;;;5.00;1.00;5.30;101730.00;;;;5088935;28;20458;-78
2022/03/20 03:35:41;;;;;;;24.03;20.73;;;5.00;1.00;5.40;101726.00;;;;5087239;28;20501;-77
2022/03/20 03:36:25;;;;;;;28.50;21.23;;;5.00;1.00;5.30;101722.00;;;;5088402;28;20993;-78
2022/03/20 03:38:55;;;;;;;25.70;21.13;;;5.00;1.00;5.30;101719.00;;;;5083533;28;20480;-78
2022/03/20 03:41:24;;;;;;;24.30;19.90;;;5.00;1.00;5.40;101730.00;;;;5090637;28;20462;-77
2022/03/20 03:43:53;;;;;;;25.17;22.33;;;4.90;1.00;5.40;101730.00;;;;5106644;28;20479;-78
2022/03/20 03:46:23;;;;;;;24.77;21.60;;;5.00;1.00;5.40;101736.00;;;;5102740;28;20480;-77
2022/03/20 03:48:51;;;;;;;27.03;21.37;;;5.00;1.00;5.40;101737.00;;;;5088096;28;20462;-78
2022/03/20 03:51:20;;;;;;;27.40;21.80;;;5.00;1.00;5.40;101742.00;;;;5093894;28;20454;-78
2022/03/20 03:53:48;;;;;;;26.57;22.10;;;5.00;1.00;5.40;101724.00;;;;5091932;28;20477;-78
2022/03/20 03:56:19;;;;;;;26.77;23.37;;;5.00;1.00;5.30;101708.00;;;;5089511;28;20446;-78
2022/03/20 03:58:47;;;;;;;24.63;20.77;;;5.00;1.00;5.40;101710.00;;;;5086388;28;20474;-78
2022/03/20 04:01:15;;;;;;;27.13;22.77;;;5.00;1.00;5.40;101715.00;;;;5081400;28;20449;-78
2022/03/20 04:03:44;;;;;;;26.37;21.17;;;5.00;1.00;5.30;101717.00;;;;5078543;28;20523;-78
2022/03/20 04:06:14;;;;;;;29.10;24.87;;;5.00;1.00;5.40;101699.00;;;;5084705;28;20562;-78
2022/03/20 04:08:42;;;;;;;29.20;23.17;;;5.00;1.00;5.40;101713.00;;;;5083234;28;20473;-78
2022/03/20 04:11:10;;;;;;;26.03;22.37;;;5.10;1.00;5.40;101704.00;;;;5087203;28;20453;-78
2022/03/20 04:13:40;;;;;;;30.30;24.80;;;5.10;1.00;5.40;101693.00;;;;5088390;28;20517;-78
2022/03/20 04:16:08;;;;;;;28.73;21.93;;;5.10;1.00;5.50;101698.00;;;;5104861;28;20441;-79
2022/03/20 04:18:37;;;;;;;25.13;22.30;;;5.20;1.00;5.50;101715.00;;;;5124027;28;20492;-78
2022/03/20 04:21:06;;;;;;;32.70;23.87;;;5.20;1.00;5.60;101683.00;;;;5097813;28;20459;-78
2022/03/20 04:23:48;;;;;;;25.77;21.73;;;5.20;1.00;5.60;101698.00;;;;5093362;28;20531;-78
2022/03/20 04:26:20;;;;;;;27.20;23.10;;;5.30;1.00;5.60;101695.00;;;;5089624;28;20569;-78
2022/03/20 04:28:52;;;;;;;27.30;22.90;;;5.30;1.00;5.70;101708.00;;;;5090198;28;20503;-78
2022/03/20 04:31:21;;;;;;;28.90;24.10;;;5.40;1.00;5.70;101700.00;;;;5094311;28;20446;-78
2022/03/20 04:33:53;;;;;;;27.10;23.70;;;5.40;1.00;5.70;101695.00;;;;5092340;28;20470;-78
2022/03/20 04:36:23;;;;;;;29.93;24.63;;;5.40;1.00;5.60;101681.00;;;;5079981;28;20950;-78
2022/03/20 04:38:55;;;;;;;27.30;23.50;;;5.40;1.00;5.70;101685.00;;;;5097606;28;20588;-78
2022/03/20 04:41:24;;;;;;;26.67;23.77;;;5.40;1.00;5.70;101676.00;;;;5083192;28;20458;-78
2022/03/20 04:43:54;;;;;;;30.10;25.10;;;5.30;1.00;5.60;101699.00;;;;5084462;28;20450;-78
2022/03/20 04:46:23;;;;;;;27.50;22.80;;;5.30;1.00;5.60;101651.00;;;;5084446;28;20826;-78
2022/03/20 04:59:57;;;;;;;29.43;24.60;;;5.40;1.00;5.90;101683.00;;;;5079147;28;20461;-78
2022/03/20 05:02:25;;;;;;;30.60;25.37;;;5.50;1.00;5.90;101681.00;;;;5079794;28;20466;-78
2022/03/20 05:04:54;;;;;;;29.80;25.60;;;5.50;1.00;5.90;101682.00;;;;5099025;28;20462;-78
2022/03/20 05:07:22;;;;;;;27.50;24.37;;;5.60;1.00;6.00;101692.00;;;;5080441;28;20480;-78
2022/03/20 05:15:24;;;;;;;30.43;24.77;;;5.70;1.00;5.90;101691.00;;;;5080283;28;20514;-78
2022/03/20 05:17:53;;;;;;;31.17;26.00;;;5.70;1.00;6.00;101690.00;;;;5096208;28;20478;-78
2022/03/20 05:20:22;;;;;;;30.50;25.30;;;5.70;1.00;6.00;101684.00;;;;5099313;28;20443;-78
2022/03/20 05:22:51;;;;;;;32.10;25.80;;;5.70;1.00;6.00;101685.00;;;;5097362;28;20456;-78
2022/03/20 05:25:20;;;;;;;31.73;25.43;;;5.80;1.00;6.10;101701.00;;;;5091356;28;20457;-78
2022/03/20 05:27:48;;;;;;;32.30;26.63;;;5.80;1.00;6.10;101715.00;;;;5103651;28;20474;-78
2022/03/20 05:30:16;;;;;;;30.73;26.13;;;5.90;1.00;6.20;101703.00;;;;5096612;28;21112;-78
2022/03/20 05:32:47;;;;;;;32.27;28.03;;;5.90;1.00;6.20;101687.00;;;;5103303;28;20490;-78
2022/03/20 05:35:17;;;;;;;31.20;26.00;;;5.90;1.00;6.20;101704.00;;;;5087243;28;21468;-78
2022/03/20 05:37:46;;;;;;;28.80;25.70;;;5.90;1.00;6.30;101718.00;;;;5085180;28;20520;-78
2022/03/20 05:40:15;;;;;;;29.50;25.50;;;6.00;1.00;6.30;101698.00;;;;5078909;28;20548;-78
2022/03/20 05:42:44;;;;;;;32.17;26.27;;;6.00;1.00;6.40;101710.00;;;;5080310;28;20474;-78
2022/03/20 05:45:12;;;;;;;34.63;27.10;;;6.10;1.00;6.50;101715.00;;;;5102052;28;20545;-78
2022/03/20 05:47:41;;;;;;;32.17;26.40;;;6.10;1.00;6.50;101704.00;;;;5079599;28;20473;-78
2022/03/20 05:50:12;;;;;;;32.17;27.60;;;6.20;1.00;6.50;101709.00;;;;5082713;28;20488;-78
2022/03/20 05:52:41;;;;;;;33.40;28.57;;;6.20;1.00;6.50;101712.00;;;;5084643;28;20439;-78
2022/03/20 05:55:10;;;;;;;31.00;26.10;;;6.20;1.00;6.60;101701.00;;;;5083651;28;20488;-78
2022/03/20 05:58:02;;;;;;;35.27;28.07;;;6.30;1.00;6.60;101709.00;;;;5082209;28;20469;-78
2022/03/20 06:00:31;;;;;;;31.17;27.00;;;6.40;1.00;6.60;101694.00;;;;5083321;28;20450;-78
2022/03/20 06:03:01;;;;;;;30.50;26.80;;;6.40;1.00;6.70;101675.00;;;;5085254;28;20895;-78
2022/03/20 06:05:31;;;;;;;30.53;26.40;;;6.40;1.00;6.70;101696.00;;;;5089592;28;20953;-78
2022/03/20 06:07:59;;;;;;;34.93;28.43;;;6.50;1.00;6.80;101676.00;;;;5087853;28;20467;-78
2022/03/20 06:10:28;;;;;;;33.10;27.13;;;6.50;1.00;6.80;101682.00;;;;5100036;28;20457;-79
2022/03/20 06:12:56;;;;;;;32.57;26.83;;;6.60;1.00;6.90;101697.00;;;;5104942;28;20466;-78
2022/03/20 06:15:24;;;;;;;31.33;26.70;;;6.60;1.00;6.90;101699.00;;;;5105562;28;20518;-79
2022/03/20 06:17:53;;;;;;;31.73;27.50;;;6.70;1.00;7.00;101692.00;;;;5116096;28;20476;-80
2022/03/20 06:20:21;;;;;;;32.80;28.53;;;6.70;1.00;7.10;101696.00;;;;5117787;28;20445;-79
2022/03/20 06:22:51;;;;;;;31.90;26.77;;;7.00;1.00;7.10;101684.00;;;;5100573;28;21025;-79
2022/03/20 06:25:20;;;;;;;34.30;28.30;;;6.90;1.00;7.20;101709.00;;;;5096413;28;20469;-78
2022/03/20 06:27:50;;;;;;;32.67;27.90;;;6.90;1.00;7.30;101701.00;;;;5095056;28;20560;-78
2022/03/20 06:30:21;;;;;;;31.23;27.13;;;7.00;1.00;7.40;101708.00;;;;5093187;28;20458;-78
2022/03/20 06:32:50;;;;;;;32.40;27.23;;;7.20;1.00;7.50;101715.00;;;;5080955;28;20859;-79
2022/03/20 06:35:19;;;;;;;35.93;27.63;;;7.30;1.00;7.60;101713.00;;;;5084770;28;20541;-79
2022/03/20 06:37:53;;;;;;;34.53;27.87;;;7.40;1.00;7.70;101718.00;;;;5096094;28;20463;-79
2022/03/20 06:40:22;;;;;;;29.83;26.53;;;7.50;1.00;7.80;101731.00;;;;5080837;28;20438;-79
2022/03/20 06:42:52;;;;;;;37.47;28.53;;;7.60;1.00;8.00;101724.00;;;;5075691;28;20447;-79
2022/03/20 06:45:20;;;;;;;34.83;27.83;;;7.90;1.00;8.10;101740.00;;;;5096342;28;20450;-79
2022/03/20 06:47:50;;;;;;;35.17;28.53;;;7.80;1.00;8.10;101736.00;;;;5085650;28;20573;-78
2022/03/20 06:50:19;;;;;;;33.43;27.23;;;7.90;1.00;8.20;101750.00;;;;5087992;28;20475;-78
2022/03/20 06:52:47;;;;;;;31.10;25.93;;;8.00;1.00;8.20;101743.00;;;;5083450;28;20796;-78
2022/03/20 06:55:18;;;;;;;34.90;27.53;;;8.00;1.00;8.30;101732.00;;;;5091682;28;21021;-78
2022/03/20 06:57:48;;;;;;;30.20;26.23;;;8.10;1.00;8.40;101734.00;;;;5092385;28;20465;-79
2022/03/20 07:00:17;;;;;;;31.70;26.90;;;8.30;1.00;8.50;101737.00;;;;5090321;28;20457;-79
2022/03/20 07:02:56;;;;;;;33.73;27.70;;;8.30;1.00;8.50;101712.00;;;;5089866;28;20458;-79
2022/03/20 07:05:31;;;;;;;33.83;26.70;;;8.40;1.00;8.50;101729.00;;;;5081909;28;20453;-79
2022/03/20 07:08:00;;;;;;;30.17;26.30;;;8.30;1.00;8.40;101733.00;;;;5114425;28;20484;-79
2022/03/20 07:10:30;;;;;;;29.93;26.70;;;8.30;1.00;8.40;101734.00;;;;5093198;28;20450;-79
2022/03/20 07:15:42;;;;;;;30.67;26.47;;;8.20;1.00;8.50;101720.00;;;;5089017;28;20454;-79
2022/03/20 07:18:13;;;;;;;31.40;26.90;;;8.30;1.00;8.70;101746.00;;;;5089909;28;20557;-79
2022/03/20 07:20:45;;;;;;;31.97;27.13;;;8.50;1.00;8.90;101741.00;;;;5096542;28;20453;-79
2022/03/20 07:23:14;;;;;;;31.80;27.77;;;8.20;1.00;9.10;101745.00;;;;5086695;28;20454;-77
2022/03/20 07:31:17;;;;;;;32.50;29.00;;;9.70;1.00;9.80;101735.00;;;;5102412;28;20529;-76
2022/03/20 07:33:48;;;;;;;29.30;26.10;;;9.60;1.00;10.00;101734.00;;;;5107653;28;20538;-76
2022/03/20 07:36:18;;;;;;;32.37;26.77;;;9.80;1.00;10.10;101729.00;;;;5094999;28;20558;-77
2022/03/20 07:38:47;;;;;;;30.73;26.63;;;9.90;1.00;10.00;101731.00;;;;5085426;28;20470;-78
2022/03/20 07:41:17;;;;;;;31.30;26.57;;;9.90;1.00;10.00;101722.00;;;;5088397;28;20450;-78
2022/03/20 07:43:47;;;;;;;33.30;25.67;;;9.90;1.00;10.00;101721.00;;;;5090741;28;20461;-78
2022/03/20 07:46:15;;;;;;;32.67;25.90;;;9.80;1.00;9.80;101721.00;;;;5091196;28;20446;-78
2022/03/20 07:48:43;;;;;;;32.13;26.70;;;9.70;1.00;9.90;101724.00;;;;5085897;28;20474;-78
2022/03/20 07:51:12;;;;;;;30.77;26.50;;;9.70;1.00;10.10;101720.00;;;;5084762;28;20471;-78
2022/03/20 07:53:40;;;;;;;32.77;26.90;;;9.90;1.00;10.40;101723.00;;;;5094505;28;20510;-78
2022/03/20 07:56:08;;;;;;;30.07;25.57;;;10.20;1.00;10.60;101728.00;;;;5088774;28;20540;-77
2022/03/20 07:58:38;;;;;;;30.10;26.40;;;10.50;1.00;10.80;101728.00;;;;5108736;28;20568;-78
2022/03/20 08:01:07;;;;;;;31.13;25.70;;;10.60;1.00;10.90;101716.00;;;;5099084;28;20453;-78
2022/03/20 08:03:35;;;;;;;29.77;24.90;;;10.80;1.00;11.10;101725.00;;;;5110257;28;20451;-78
2022/03/20 08:06:04;;;;;;;28.60;25.63;;;10.90;1.00;11.40;101730.00;;;;5109821;28;20442;-78
2022/03/20 08:08:33;;;;;;;32.50;25.13;;;11.20;1.00;11.50;101729.00;;;;5088196;28;20507;-78
2022/03/20 08:11:01;;;;;;;30.23;26.57;;;11.40;1.00;11.50;101750.00;;;;5086385;28;21574;-78
2022/03/20 08:13:31;;;;;;;30.30;26.50;;;11.50;1.00;11.50;101732.00;;;;5083661;28;20458;-78
2022/03/20 08:16:01;;;;;;;30.23;25.90;;;11.50;1.00;11.50;101746.00;;;;5083112;28;20474;-78
2022/03/20 08:18:31;;;;;;;29.23;25.83;;;11.50;1.00;11.60;101750.00;;;;5077173;28;20538;-77
2022/03/20 08:20:59;;;;;;;29.70;24.90;;;11.50;1.00;11.40;101742.00;;;;5082416;28;20920;-78
2022/03/20 08:23:27;;;;;;;29.87;26.63;;;11.40;1.00;11.50;101683.00;;;;5086148;28;21012;-77
2022/03/20 08:25:56;;;;;;;29.33;26.13;;;11.40;1.00;11.50;101732.00;;;;5082818;28;20449;-78
2022/03/20 08:28:24;;;;;;;30.63;27.13;;;11.40;1.00;11.50;101743.00;;;;5084486;28;20480;-78
2022/03/20 08:30:53;;;;;;;29.53;25.97;;;11.30;1.00;11.40;101715.00;;;;5082382;28;21048;-77
2022/03/20 08:33:23;;;;;;;29.20;25.67;;;11.20;1.00;11.40;101719.00;;;;5096360;28;20439;-77
2022/03/20 08:35:51;;;;;;;30.30;25.47;;;11.40;1.00;11.40;101710.00;;;;5109100;28;20525;-77
2022/03/20 08:38:21;;;;;;;30.80;27.50;;;11.30;1.00;11.40;101733.00;;;;5113716;28;20519;-78
2022/03/20 08:40:50;;;;;;;30.37;24.57;;;11.20;1.00;11.40;101723.00;;;;5100769;28;20438;-80
2022/03/20 08:43:18;;;;;;;29.23;24.70;;;11.20;1.00;11.50;101757.00;;;;5090861;28;20453;-79
2022/03/20 08:45:47;;;;;;;29.53;25.63;;;11.20;1.00;11.50;101746.00;;;;5085129;28;20459;-78
2022/03/20 08:48:15;;;;;;;28.53;25.33;;;11.30;1.00;11.70;101744.00;;;;5084581;28;20475;-78
2022/03/20 08:50:48;;;;;;;30.20;26.10;;;11.50;1.00;11.70;101743.00;;;;5080498;28;20820;-78
2022/03/20 08:53:18;;;;;;;29.40;25.77;;;11.50;1.00;11.70;101752.00;;;;5099820;28;20480;-78
2022/03/20 08:55:47;;;;;;;28.03;25.00;;;11.50;1.00;11.80;101756.00;;;;5083627;28;20959;-78
2022/03/20 08:58:16;;;;;;;29.00;25.40;;;11.50;1.00;11.80;101757.00;;;;5092079;28;20470;-78
2022/03/20 09:00:45;;;;;;;30.10;25.30;;;11.60;1.00;11.90;101741.00;;;;5093014;28;20557;-79
2022/03/20 09:03:13;;;;;;;28.13;25.13;;;11.70;1.00;11.90;101761.00;;;;5098877;28;20466;-78
2022/03/20 09:05:42;;;;;;;28.47;25.47;;;11.70;1.00;12.00;101755.00;;;;5089134;28;20762;-78
2022/03/20 09:08:12;;;;;;;26.90;24.10;;;11.80;1.00;12.00;101772.00;;;;5085398;28;20482;-79
2022/03/20 09:10:41;;;;;;;28.37;25.33;;;11.80;1.00;12.10;101751.00;;;;5096041;28;20510;-77
2022/03/20 09:13:09;;;;;;;29.70;26.50;;;11.90;1.00;12.20;101759.00;;;;5093307;28;20475;-78
2022/03/20 09:15:38;;;;;;;27.93;24.90;;;12.00;1.00;12.20;101766.00;;;;5099100;28;20477;-78
2022/03/20 09:20:52;;;;;;;26.63;23.60;;;12.10;1.00;12.40;101754.00;;;;5113310;28;20992;-78
2022/03/20 09:23:22;;;;;;;28.10;23.97;;;12.20;1.00;12.50;101763.00;;;;5089418;28;20446;-78
2022/03/20 09:25:52;;;;;;;30.80;26.50;;;12.30;1.00;12.60;101750.00;;;;5081267;28;20549;-79
2022/03/20 09:28:21;;;;;;;26.50;23.70;;;12.40;1.00;12.70;101763.00;;;;5085972;28;20478;-78
2022/03/20 09:30:51;;;;;;;29.23;25.50;;;12.50;1.00;12.80;101765.00;;;;5090495;28;20453;-78
2022/03/20 09:33:21;;;;;;;28.97;23.97;;;12.70;1.00;12.90;101747.00;;;;5091268;28;20461;-78
2022/03/20 09:35:50;;;;;;;28.67;25.57;;;12.80;1.00;13.10;101741.00;;;;5087342;28;20485;-79
2022/03/20 09:38:20;;;;;;;27.40;24.50;;;13.00;1.00;13.30;101752.00;;;;5083523;28;20485;-81
2022/03/20 09:40:51;;;;;;;28.57;25.53;;;13.20;1.00;13.50;101752.00;;;;5089159;28;21109;-79
2022/03/20 09:43:20;;;;;;;31.03;25.60;;;13.40;1.00;13.70;101758.00;;;;5088063;28;20457;-79
2022/03/20 09:45:49;;;;;;;28.70;24.83;;;13.90;1.00;13.60;101767.00;;;;5089613;28;20461;-75
2022/03/20 09:48:19;;;;;;;27.90;24.83;;;13.70;1.00;13.50;101741.00;;;;5100745;28;20494;-76
2022/03/20 09:50:50;;;;;;;29.57;26.00;;;13.40;1.00;13.40;101757.00;;;;5107724;28;20490;-76
2022/03/20 09:53:19;;;;;;;30.00;25.20;;;13.30;1.00;13.30;101768.00;;;;5112053;28;20470;-77
2022/03/20 09:55:49;;;;;;;28.60;25.60;;;13.20;1.00;13.40;101744.00;;;;5111787;28;20470;-77
2022/03/20 09:58:18;;;;;;;30.27;25.83;;;13.40;1.00;13.50;101774.00;;;;5094687;28;20466;-76
2022/03/20 10:00:47;;;;;;;26.50;23.80;;;13.50;1.00;13.60;101766.00;;;;5087564;28;20455;-77
2022/03/20 10:03:20;;;;;;;30.83;26.60;;;13.50;1.00;13.60;101786.00;;;;5085460;28;20442;-78
2022/03/20 10:06:16;;;;;;;28.77;25.70;;;13.50;1.00;13.60;101775.00;;;;5087789;28;20533;-77
2022/03/20 10:09:06;;;;;;;30.10;26.90;;;13.50;1.00;13.70;101776.00;;;;5086670;28;20506;-76
2022/03/20 10:11:41;;;;;;;29.93;26.83;;;13.60;1.00;13.80;101773.00;;;;5088235;28;20447;-76
2022/03/20 10:14:16;;;;;;;28.27;25.00;;;13.70;1.00;14.00;101784.00;;;;5086869;28;20946;-76
2022/03/20 10:16:48;;;;;;;28.03;24.43;;;13.90;1.00;14.00;101781.00;;;;5100924;28;20552;-75
2022/03/20 10:19:30;;;;;;;27.40;24.60;;;13.90;1.00;14.00;101768.00;;;;5101898;28;20478;-76
2022/03/20 10:22:02;;;;;;;27.97;24.97;;;13.90;1.00;14.20;101788.00;;;;5095305;28;20464;-77
2022/03/20 10:24:33;;;;;;;28.53;25.50;;;14.20;1.00;14.30;101772.00;;;;5112299;28;20447;-76
2022/03/20 10:27:16;;;;;;;27.77;24.83;;;14.20;1.00;14.50;101778.00;;;;5093847;28;20451;-76
2022/03/20 10:29:51;;;;;;;29.03;25.97;;;14.40;1.00;14.60;101776.00;;;;5093867;28;20466;-75
2022/03/20 10:32:21;;;;;;;30.40;26.63;;;14.60;1.00;14.80;101768.00;;;;5099950;28;20459;-76
2022/03/20 10:34:54;;;;;;;30.90;27.70;;;14.70;1.00;14.70;101751.00;;;;5106204;28;20427;-77
2022/03/20 10:37:44;;;;;;;28.70;25.70;;;14.70;1.00;14.70;101755.00;;;;5106872;28;20946;-75
2022/03/20 10:40:16;;;;;;;27.47;24.67;;;14.70;1.00;14.80;101750.00;;;;5103249;28;20517;-76
2022/03/20 10:43:08;;;;;;;29.87;26.77;;;14.80;1.00;14.80;101752.00;;;;5110377;28;20455;-76
2022/03/20 10:45:56;;;;;;;28.37;25.53;;;14.70;1.00;14.80;101753.00;;;;5097307;28;20482;-75
2022/03/20 10:48:36;;;;;;;31.87;28.50;;;14.80;1.00;14.90;101740.00;;;;5093448;28;20470;-76
2022/03/20 10:51:07;;;;;;;28.70;25.80;;;14.90;1.00;15.00;101746.00;;;;5088383;28;20982;-76
2022/03/20 10:53:37;;;;;;;29.00;25.90;;;15.00;1.00;15.00;101746.00;;;;5087749;28;20454;-77
2022/03/20 10:56:08;;;;;;;29.07;25.97;;;15.10;1.00;15.10;101741.00;;;;5086123;28;20465;-76
2022/03/20 10:58:41;;;;;;;31.07;25.50;;;15.20;1.00;15.20;101760.00;;;;5084710;28;20470;-76
2022/03/20 11:01:09;;;;;;;28.87;25.70;;;15.30;1.00;15.30;101752.00;;;;5087826;28;20939;-76
2022/03/20 11:03:40;;;;;;;28.77;25.97;;;15.30;1.00;15.30;101746.00;;;;5086113;28;20442;-75
2022/03/20 11:06:10;;;;;;;32.40;28.90;;;15.40;1.00;15.40;101761.00;;;;5087243;28;20457;-75
2022/03/20 11:08:39;;;;;;;28.80;26.00;;;15.40;1.00;15.40;101763.00;;;;5088668;28;20559;-75
2022/03/20 11:11:10;;;;;;;28.60;25.63;;;15.60;1.00;15.40;101776.00;;;;5089185;28;20456;-76
2022/03/20 11:13:46;;;;;;;27.83;24.30;;;15.70;1.00;15.50;101772.00;;;;5091391;28;20542;-75
2022/03/20 11:16:17;;;;;;;29.47;26.37;;;15.40;1.00;15.50;101775.00;;;;5105739;28;20453;-76
2022/03/20 11:18:49;;;;;;;29.53;26.40;;;15.40;1.00;15.50;101766.00;;;;5108802;28;20469;-75
2022/03/20 11:21:19;;;;;;;30.53;26.27;;;15.40;1.00;15.50;101764.00;;;;5102808;28;20553;-78
2022/03/20 11:23:48;;;;;;;29.23;26.07;;;15.40;1.00;15.50;101770.00;;;;5094887;28;20999;-79
2022/03/20 11:26:21;;;;;;;27.90;24.83;;;15.30;1.00;15.50;101771.00;;;;5091354;28;20561;-80
2022/03/20 11:28:58;;;;;;;28.27;25.27;;;15.20;1.00;15.50;101734.00;;;;5092351;28;20894;-79
2022/03/20 11:31:27;;;;;;;29.27;26.37;;;15.40;1.00;15.70;101776.00;;;;5090541;28;20464;-80
2022/03/20 11:33:57;;;;;;;27.03;24.23;;;15.50;1.00;15.80;101773.00;;;;5089128;28;20458;-79